Time;durP1;ratioP1;P1;durP2;ratioP2;P2;SDS_P1;SDS_P2;PMS_P1;PMS_P2;Temp;Humidity;BMP_temperature;BMP_pressure;BME280_temperature;BME280_humidity;BME280_pressure;Samples;Min_cycle;Max_cycle;Signal;HPM_P1;HPM_P2
2023/02/07 00:01:27;;;;;;;13.93;7.38;;;-3.50;99.90;;;;;;5079592;28;25058;-74
2023/02/07 00:03:55;;;;;;;16.20;6.15;;;-3.50;99.90;;;;;;5080039;28;25123;-74
2023/02/07 00:06:31;;;;;;;13.35;6.20;;;-3.60;99.90;;;;;;5078390;28;25073;-75
2023/02/07 00:09:00;;;;;;;13.23;6.68;;;-3.60;99.90;;;;;;5078636;28;25098;-74
2023/02/07 00:11:27;;;;;;;15.40;6.82;;;-3.60;99.90;;;;;;5078202;28;25059;-75
2023/02/07 00:13:56;;;;;;;15.20;7.15;;;-3.60;99.90;;;;;;5079645;28;25071;-74
2023/02/07 00:16:24;;;;;;;14.52;6.50;;;-3.60;99.90;;;;;;5078264;28;25103;-74
2023/02/07 00:18:53;;;;;;;17.38;6.85;;;-3.60;99.90;;;;;;5079263;28;25064;-74
2023/02/07 00:21:22;;;;;;;19.42;7.80;;;-3.50;99.90;;;;;;5079795;28;25100;-75
2023/02/07 00:23:49;;;;;;;14.45;6.10;;;-3.40;99.90;;;;;;5079181;28;25147;-74
2023/02/07 00:26:19;;;;;;;14.85;7.03;;;-3.40;99.90;;;;;;5078863;28;25116;-74
2023/02/07 00:28:52;;;;;;;10.60;6.30;;;-3.50;99.90;;;;;;5077991;28;25111;-75
2023/02/07 00:31:25;;;;;;;15.50;6.25;;;-3.50;99.90;;;;;;5077674;28;25069;-75
2023/02/07 00:33:55;;;;;;;16.60;6.53;;;-3.60;99.90;;;;;;5077959;28;25079;-74
2023/02/07 00:36:24;;;;;;;13.43;7.38;;;-3.60;99.90;;;;;;5078971;28;25155;-75
2023/02/07 00:38:57;;;;;;;14.02;6.38;;;-3.70;99.90;;;;;;5078934;28;25050;-74
2023/02/07 00:41:24;;;;;;;11.35;5.15;;;-3.70;99.90;;;;;;5079378;28;25132;-75
2023/02/07 00:43:51;;;;;;;15.63;6.03;;;-3.70;99.90;;;;;;5076947;28;25096;-75
2023/02/07 00:46:18;;;;;;;14.68;5.80;;;-3.80;99.90;;;;;;5077682;28;25076;-75
2023/02/07 00:48:46;;;;;;;14.23;5.68;;;-3.80;99.90;;;;;;5077944;28;25099;-75
2023/02/07 00:51:14;;;;;;;14.70;5.85;;;-3.80;99.90;;;;;;5075874;28;25056;-75
2023/02/07 00:53:43;;;;;;;13.10;6.40;;;-3.80;99.90;;;;;;5079235;28;25113;-75
2023/02/07 00:56:11;;;;;;;9.30;5.43;;;-3.80;99.90;;;;;;5078990;28;25056;-75
2023/02/07 00:58:38;;;;;;;10.20;5.47;;;-3.80;99.90;;;;;;5078563;28;25119;-75
2023/02/07 01:01:06;;;;;;;11.55;5.53;;;-3.90;99.90;;;;;;5077583;28;25058;-75
2023/02/07 01:03:33;;;;;;;9.80;4.97;;;-3.90;99.90;;;;;;5078483;28;25117;-74
2023/02/07 01:06:00;;;;;;;12.70;6.28;;;-3.90;99.90;;;;;;5078996;28;25085;-75
2023/02/07 01:08:28;;;;;;;13.05;5.13;;;-3.90;99.90;;;;;;5077268;28;25100;-75
2023/02/07 01:10:56;;;;;;;13.05;5.85;;;-3.90;99.90;;;;;;5078984;28;25080;-75
2023/02/07 01:13:23;;;;;;;12.55;5.22;;;-3.90;99.90;;;;;;5078456;28;25067;-75
2023/02/07 01:15:51;;;;;;;10.43;5.65;;;-3.90;99.90;;;;;;5078283;28;25069;-75
2023/02/07 01:18:18;;;;;;;13.20;5.75;;;-3.90;99.90;;;;;;5078183;28;25107;-75
2023/02/07 01:20:46;;;;;;;11.05;5.47;;;-3.90;99.90;;;;;;5077942;28;25062;-75
2023/02/07 01:23:14;;;;;;;10.18;5.18;;;-4.00;99.90;;;;;;5076680;28;25104;-75
2023/02/07 01:25:45;;;;;;;9.65;4.57;;;-4.00;99.90;;;;;;5078097;28;25088;-75
2023/02/07 01:28:13;;;;;;;12.25;5.72;;;-4.10;99.90;;;;;;5077959;28;25055;-75
2023/02/07 01:30:43;;;;;;;10.60;4.93;;;-4.10;99.90;;;;;;5070885;28;25114;-75
2023/02/07 01:33:10;;;;;;;11.02;4.43;;;-4.10;99.90;;;;;;5039712;28;25075;-75
2023/02/07 01:35:38;;;;;;;10.63;5.10;;;-4.10;99.90;;;;;;5057944;28;25137;-75
2023/02/07 01:38:06;;;;;;;12.57;6.13;;;-4.10;99.90;;;;;;5040065;28;25068;-75
2023/02/07 01:40:37;;;;;;;19.08;7.38;;;-4.20;99.90;;;;;;5057561;28;25146;-75
2023/02/07 01:43:04;;;;;;;12.88;6.20;;;-4.20;99.90;;;;;;5039936;28;25063;-75
2023/02/07 01:45:39;;;;;;;10.77;5.70;;;-4.20;99.90;;;;;;5039921;28;25051;-76
2023/02/07 01:48:14;;;;;;;12.83;5.30;;;-4.20;99.90;;;;;;5057587;28;25054;-75
2023/02/07 01:50:47;;;;;;;13.52;6.88;;;-4.20;99.90;;;;;;5057684;28;25113;-75
2023/02/07 01:53:18;;;;;;;16.30;6.28;;;-4.20;99.90;;;;;;5039999;28;25066;-75
2023/02/07 01:55:46;;;;;;;8.65;4.50;;;-4.20;99.90;;;;;;5039728;28;25062;-75
2023/02/07 01:58:14;;;;;;;10.68;6.05;;;-4.30;99.90;;;;;;5056825;28;25054;-76
2023/02/07 02:00:41;;;;;;;15.00;5.88;;;-4.30;99.90;;;;;;5057509;28;25098;-76
2023/02/07 02:03:08;;;;;;;9.63;4.80;;;-4.30;99.90;;;;;;5039552;28;25069;-75
2023/02/07 02:05:37;;;;;;;13.93;5.82;;;-4.30;99.90;;;;;;5039569;28;25062;-76
2023/02/07 02:08:05;;;;;;;8.60;4.70;;;-4.30;99.90;;;;;;5039209;28;25051;-75
2023/02/07 02:10:54;;;;;;;12.45;5.28;;;-4.30;99.90;;;;;;5057246;28;25060;-76
2023/02/07 02:13:40;;;;;;;14.20;5.95;;;-4.40;99.90;;;;;;5057284;28;25057;-76
2023/02/07 02:16:31;;;;;;;10.05;4.63;;;-4.40;99.90;;;;;;5057110;28;25047;-75
2023/02/07 02:19:40;;;;;;;11.98;5.18;;;-4.40;99.90;;;;;;5056170;28;25098;-76
2023/02/07 02:22:41;;;;;;;11.80;4.95;;;-4.40;99.90;;;;;;5039220;28;25128;-75
2023/02/07 02:25:45;;;;;;;11.90;5.35;;;-4.40;99.90;;;;;;5039519;28;25145;-76
2023/02/07 02:28:32;;;;;;;11.48;5.10;;;-4.40;99.90;;;;;;5039099;28;25072;-76
2023/02/07 02:31:27;;;;;;;12.50;5.60;;;-4.40;99.90;;;;;;5057004;28;25132;-76
2023/02/07 02:34:13;;;;;;;9.95;5.00;;;-4.40;99.90;;;;;;5057327;28;25096;-76
2023/02/07 02:37:00;;;;;;;;;;;-4.50;99.90;;;;;;5057129;28;25079;-76
2023/02/07 02:39:51;;;;;;;8.83;4.77;;;-4.50;99.90;;;;;;5039167;28;25056;-76
2023/02/07 02:42:50;;;;;;;12.98;5.70;;;-4.50;99.90;;;;;;5038840;28;25093;-76
2023/02/07 02:45:44;;;;;;;10.95;4.85;;;-4.50;99.90;;;;;;5056801;28;25102;-76
2023/02/07 02:48:12;;;;;;;12.55;5.43;;;-4.50;99.90;;;;;;5038372;28;25044;-76
2023/02/07 02:50:45;;;;;;;9.52;4.72;;;-4.60;99.90;;;;;;5038794;28;25058;-76
2023/02/07 02:53:12;;;;;;;11.15;5.95;;;-4.60;99.90;;;;;;5056347;28;25125;-76
2023/02/07 02:56:09;;;;;;;10.35;4.63;;;-4.60;99.90;;;;;;5038644;28;25089;-76
2023/02/07 02:59:09;;;;;;;9.43;4.47;;;-4.60;99.90;;;;;;5056711;28;25104;-76
2023/02/07 03:01:43;;;;;;;19.58;5.50;;;-4.60;99.90;;;;;;5038163;28;25114;-76
2023/02/07 03:04:23;;;;;;;8.93;4.72;;;-4.60;99.90;;;;;;5056460;28;25068;-76
2023/02/07 03:07:03;;;;;;;10.23;5.35;;;-4.60;99.90;;;;;;5056555;28;25098;-76
2023/02/07 03:09:43;;;;;;;12.73;5.25;;;-4.60;99.90;;;;;;5038608;28;25065;-76
2023/02/07 03:12:33;;;;;;;8.07;4.28;;;-4.60;99.90;;;;;;5038428;28;25079;-76
2023/02/07 03:15:31;;;;;;;10.50;5.35;;;-4.60;99.90;;;;;;5055107;28;25053;-76
2023/02/07 03:18:10;;;;;;;10.77;5.65;;;-4.60;99.90;;;;;;5056457;28;25138;-76
2023/02/07 03:21:24;;;;;;;12.45;5.22;;;-4.60;99.90;;;;;;5038494;28;25134;-76
2023/02/07 03:23:56;;;;;;;9.93;4.97;;;-4.60;99.90;;;;;;5014824;28;25069;-76
2023/02/07 03:26:25;;;;;;;9.23;4.80;;;-4.70;99.90;;;;;;5036853;28;25067;-76
2023/02/07 03:28:54;;;;;;;13.32;5.45;;;-4.70;99.90;;;;;;5056085;28;25080;-76
2023/02/07 03:31:24;;;;;;;11.43;5.97;;;-4.70;99.90;;;;;;5055876;28;25122;-76
2023/02/07 03:33:58;;;;;;;11.60;5.20;;;-4.70;99.90;;;;;;5056254;28;25062;-76
2023/02/07 03:36:40;;;;;;;11.85;4.90;;;-4.70;99.90;;;;;;5055978;28;25134;-76
2023/02/07 03:39:08;;;;;;;11.98;5.43;;;-4.70;99.90;;;;;;5038240;28;25066;-76
2023/02/07 03:42:08;;;;;;;11.52;5.43;;;-4.70;99.90;;;;;;5055853;28;25053;-76
2023/02/07 03:44:37;;;;;;;11.38;4.53;;;-4.70;99.90;;;;;;5056200;28;25075;-76
2023/02/07 03:47:05;;;;;;;10.85;4.63;;;-4.80;99.90;;;;;;5038254;28;25142;-76
2023/02/07 03:49:32;;;;;;;11.38;4.80;;;-4.80;99.90;;;;;;5038369;28;25088;-76
2023/02/07 03:52:00;;;;;;;10.75;4.70;;;-4.80;99.90;;;;;;5038102;28;25069;-76
2023/02/07 03:54:27;;;;;;;13.90;5.93;;;-4.80;99.90;;;;;;5055310;28;25078;-76
2023/02/07 03:56:54;;;;;;;11.93;5.20;;;-4.80;99.90;;;;;;5055778;28;25101;-76
2023/02/07 03:59:22;;;;;;;13.77;5.30;;;-4.80;99.90;;;;;;5055680;28;25127;-76
2023/02/07 04:01:49;;;;;;;14.25;5.13;;;-4.80;99.90;;;;;;5037824;28;25065;-76
2023/02/07 04:04:16;;;;;;;10.48;5.55;;;-4.80;99.90;;;;;;5038017;28;25075;-76
2023/02/07 04:06:43;;;;;;;9.27;4.90;;;-4.80;99.90;;;;;;5037971;28;25081;-76
2023/02/07 04:09:11;;;;;;;13.82;5.57;;;-4.80;99.90;;;;;;5055675;28;25062;-76
2023/02/07 04:11:38;;;;;;;11.38;5.10;;;-4.80;99.90;;;;;;5055549;28;25063;-76
2023/02/07 04:14:05;;;;;;;17.77;6.78;;;-4.90;99.90;;;;;;5057607;28;25047;-76
2023/02/07 04:16:33;;;;;;;9.35;5.10;;;-4.90;99.90;;;;;;5059628;28;25133;-77
2023/02/07 04:19:00;;;;;;;10.90;4.28;;;-4.90;99.90;;;;;;5059608;28;25126;-76
2023/02/07 04:21:27;;;;;;;14.38;5.80;;;-4.90;99.90;;;;;;5059500;28;25113;-76
2023/02/07 04:23:54;;;;;;;5.85;3.05;;;-5.00;99.90;;;;;;5059625;28;25087;-76
2023/02/07 04:26:22;;;;;;;16.08;6.60;;;-5.00;99.90;;;;;;5041371;28;25121;-76
2023/02/07 04:28:50;;;;;;;16.08;6.43;;;-5.00;99.90;;;;;;5041474;28;25076;-76
2023/02/07 04:31:18;;;;;;;13.80;5.85;;;-5.00;99.90;;;;;;5058986;28;25157;-76
2023/02/07 04:33:45;;;;;;;10.40;5.78;;;-5.10;99.90;;;;;;5041408;28;25077;-76
2023/02/07 04:36:13;;;;;;;12.10;5.80;;;-5.10;99.90;;;;;;5041218;28;25059;-76
2023/02/07 04:38:40;;;;;;;12.52;6.03;;;-5.10;99.90;;;;;;5059511;28;25056;-76
2023/02/07 04:41:07;;;;;;;9.70;4.53;;;-5.10;99.90;;;;;;5041134;28;25104;-76
2023/02/07 04:43:36;;;;;;;11.30;5.57;;;-5.10;99.90;;;;;;5059270;28;25065;-76
2023/02/07 04:46:06;;;;;;;15.10;6.47;;;-5.10;99.90;;;;;;5041073;28;25074;-76
2023/02/07 04:48:36;;;;;;;12.88;5.90;;;-5.10;99.90;;;;;;5058775;28;25152;-76
2023/02/07 04:51:04;;;;;;;15.55;6.65;;;-5.10;99.90;;;;;;5058670;28;25086;-76
2023/02/07 04:53:32;;;;;;;12.57;6.45;;;-5.10;99.90;;;;;;5059037;28;25141;-76
2023/02/07 04:55:59;;;;;;;21.95;7.72;;;-5.10;99.90;;;;;;5058794;28;25080;-76
2023/02/07 04:58:27;;;;;;;13.32;6.70;;;-5.10;99.90;;;;;;5058610;28;25073;-76
2023/02/07 05:00:54;;;;;;;15.73;7.45;;;-5.10;99.90;;;;;;5040809;28;25075;-76
2023/02/07 05:03:22;;;;;;;16.27;6.72;;;-5.10;99.90;;;;;;5040779;28;25103;-76
2023/02/07 05:05:51;;;;;;;17.35;7.50;;;-5.10;99.90;;;;;;5058465;28;25140;-76
2023/02/07 05:08:19;;;;;;;14.35;6.63;;;-5.10;99.90;;;;;;5058349;28;25085;-76
2023/02/07 05:10:46;;;;;;;11.85;6.63;;;-5.10;99.90;;;;;;5040791;28;25067;-76
2023/02/07 05:13:13;;;;;;;14.63;5.45;;;-5.10;99.90;;;;;;5058171;28;25055;-76
2023/02/07 05:15:41;;;;;;;17.42;7.00;;;-5.10;99.90;;;;;;5040566;28;25071;-76
2023/02/07 05:18:09;;;;;;;13.82;6.05;;;-5.20;99.90;;;;;;5040458;28;25049;-76
2023/02/07 05:20:36;;;;;;;13.02;6.05;;;-5.20;99.90;;;;;;5040442;28;25117;-76
2023/02/07 05:23:03;;;;;;;13.55;5.85;;;-5.20;99.90;;;;;;5040341;28;25148;-76
2023/02/07 05:25:30;;;;;;;18.13;6.22;;;-5.20;99.90;;;;;;5057318;28;25074;-76
2023/02/07 05:27:59;;;;;;;12.90;5.25;;;-5.20;99.90;;;;;;5040233;28;25068;-76
2023/02/07 05:30:27;;;;;;;10.48;5.38;;;-5.30;99.90;;;;;;5046138;28;25116;-76
2023/02/07 05:33:03;;;;;;;10.43;5.50;;;-5.30;99.90;;;;;;5076786;28;25123;-76
2023/02/07 05:35:36;;;;;;;12.88;6.25;;;-5.30;99.90;;;;;;5078386;28;25083;-76
2023/02/07 05:38:06;;;;;;;12.02;6.05;;;-5.30;99.90;;;;;;5078134;28;25140;-76
2023/02/07 05:40:34;;;;;;;16.23;6.32;;;-5.30;99.90;;;;;;5078029;28;25075;-76
2023/02/07 05:43:02;;;;;;;16.90;5.63;;;-5.30;99.90;;;;;;5077717;28;25067;-75
2023/02/07 05:45:29;;;;;;;14.75;6.20;;;-5.30;99.90;;;;;;5078192;28;25142;-76
2023/02/07 05:47:57;;;;;;;13.15;5.78;;;-5.30;99.90;;;;;;5077641;28;25099;-75
2023/02/07 05:50:25;;;;;;;13.73;5.88;;;-5.30;99.90;;;;;;5076555;28;25077;-76
2023/02/07 05:52:53;;;;;;;14.90;6.03;;;-5.30;99.90;;;;;;5076374;28;25059;-76
2023/02/07 05:55:20;;;;;;;11.10;5.03;;;-5.40;99.90;;;;;;5077669;28;25114;-75
2023/02/07 05:57:48;;;;;;;14.38;5.53;;;-5.40;99.90;;;;;;5076261;28;25141;-76
2023/02/07 06:00:17;;;;;;;10.80;5.05;;;-5.40;99.90;;;;;;5077694;28;25125;-76
2023/02/07 06:02:44;;;;;;;16.15;6.00;;;-5.40;99.90;;;;;;5077349;28;25125;-76
2023/02/07 06:05:14;;;;;;;10.73;5.35;;;-5.40;99.90;;;;;;5076909;28;25068;-75
2023/02/07 06:07:42;;;;;;;13.80;6.30;;;-5.40;99.90;;;;;;5076139;28;25096;-76
2023/02/07 06:10:10;;;;;;;10.40;5.25;;;-5.40;99.90;;;;;;5077229;28;25058;-76
2023/02/07 06:12:38;;;;;;;14.43;6.15;;;-5.40;99.90;;;;;;5076989;28;25076;-75
2023/02/07 06:15:06;;;;;;;13.57;5.78;;;-5.50;99.90;;;;;;5076166;28;25070;-76
2023/02/07 06:17:34;;;;;;;12.57;5.60;;;-5.50;99.90;;;;;;5077343;28;25089;-76
2023/02/07 06:20:01;;;;;;;14.40;6.43;;;-5.50;99.90;;;;;;5077003;28;25059;-76
2023/02/07 06:22:29;;;;;;;11.95;5.05;;;-5.50;99.90;;;;;;5076978;28;25115;-76
2023/02/07 06:24:56;;;;;;;14.65;6.35;;;-5.50;99.90;;;;;;5077608;28;25091;-75
2023/02/07 06:27:23;;;;;;;19.33;6.72;;;-5.50;99.90;;;;;;5077016;28;25078;-76
2023/02/07 06:29:50;;;;;;;12.15;5.32;;;-5.50;99.90;;;;;;5077403;28;25068;-76
2023/02/07 06:32:18;;;;;;;26.52;9.75;;;-5.60;99.90;;;;;;5056585;28;25056;-76
2023/02/07 06:34:45;;;;;;;23.45;9.82;;;-5.60;99.90;;;;;;5057249;28;25059;-76
2023/02/07 06:37:13;;;;;;;41.72;11.40;;;-5.60;99.90;;;;;;5056692;28;25141;-76
2023/02/07 06:39:40;;;;;;;21.70;8.80;;;-5.60;99.90;;;;;;5038983;28;25114;-75
2023/02/07 06:42:07;;;;;;;16.30;7.93;;;-5.50;99.90;;;;;;5038828;28;25057;-75
2023/02/07 06:44:34;;;;;;;20.55;7.03;;;-5.60;99.90;;;;;;5039042;28;25135;-75
2023/02/07 06:47:03;;;;;;;23.45;8.65;;;-5.50;99.90;;;;;;5038860;28;25097;-73
2023/02/07 06:49:30;;;;;;;20.02;8.75;;;-5.50;99.90;;;;;;5056926;28;25054;-74
2023/02/07 06:51:58;;;;;;;25.08;8.68;;;-5.50;99.90;;;;;;5038654;28;25068;-74
2023/02/07 06:54:25;;;;;;;21.10;7.90;;;-5.60;99.90;;;;;;5056418;28;25075;-74
2023/02/07 06:56:52;;;;;;;27.33;9.35;;;-5.60;99.90;;;;;;5056288;28;25084;-74
2023/02/07 06:59:20;;;;;;;34.65;12.02;;;-5.60;99.90;;;;;;5057150;28;25129;-74
2023/02/07 07:01:47;;;;;;;54.60;16.23;;;-5.60;99.90;;;;;;5056282;28;25069;-74
2023/02/07 07:04:15;;;;;;;56.78;16.85;;;-5.60;99.90;;;;;;5055053;28;25076;-74
2023/02/07 07:06:42;;;;;;;41.40;15.55;;;-5.50;99.90;;;;;;5056217;28;25068;-74
2023/02/07 07:09:09;;;;;;;37.60;15.48;;;-5.50;99.90;;;;;;5056670;28;25048;-74
2023/02/07 07:11:41;;;;;;;40.95;14.52;;;-5.50;99.90;;;;;;5038329;28;25117;-75
2023/02/07 07:14:10;;;;;;;33.17;11.68;;;-5.50;99.90;;;;;;5038453;28;25091;-77
2023/02/07 07:16:39;;;;;;;43.97;14.27;;;-5.50;99.90;;;;;;5038697;28;25060;-77
2023/02/07 07:19:07;;;;;;;35.72;12.82;;;-5.40;99.90;;;;;;5056631;28;25121;-75
2023/02/07 07:21:34;;;;;;;33.05;12.50;;;-5.40;99.90;;;;;;5056156;28;25117;-73
2023/02/07 07:24:01;;;;;;;41.83;13.38;;;-5.40;99.90;;;;;;5056123;28;25060;-78
2023/02/07 07:26:30;;;;;;;38.08;12.48;;;-5.30;99.90;;;;;;5055422;28;25059;-77
2023/02/07 07:28:59;;;;;;;38.95;12.52;;;-5.30;99.90;;;;;;5038591;28;25057;-76
2023/02/07 07:31:27;;;;;;;25.80;10.48;;;-5.40;99.90;;;;;;5055997;28;25128;-77
2023/02/07 07:33:55;;;;;;;32.30;12.32;;;-5.30;99.90;;;;;;5038394;28;25091;-84
2023/02/07 07:36:22;;;;;;;32.03;10.70;;;-5.30;99.90;;;;;;5038287;28;25063;-79
2023/02/07 07:38:50;;;;;;;19.83;8.07;;;-5.30;99.90;;;;;;5038214;28;25117;-78
2023/02/07 07:41:17;;;;;;;26.05;9.52;;;-5.30;99.90;;;;;;5038140;28;25070;-76
2023/02/07 07:43:44;;;;;;;26.33;10.80;;;-5.30;99.90;;;;;;5055980;28;25077;-76
2023/02/07 07:46:11;;;;;;;25.15;10.73;;;-5.30;99.90;;;;;;5038183;28;25052;-72
2023/02/07 07:48:39;;;;;;;17.30;8.35;;;-5.30;99.90;;;;;;5039226;28;25109;-72
2023/02/07 07:51:06;;;;;;;16.40;6.93;;;-5.30;99.90;;;;;;5060409;28;25119;-72
2023/02/07 07:53:33;;;;;;;14.68;8.13;;;-5.20;99.90;;;;;;5059987;28;25098;-72
2023/02/07 07:56:00;;;;;;;14.07;7.05;;;-5.20;99.90;;;;;;5059912;28;25073;-72
2023/02/07 07:58:28;;;;;;;17.17;7.85;;;-5.10;99.90;;;;;;5041639;28;25063;-72
2023/02/07 08:00:56;;;;;;;19.77;8.48;;;-5.10;99.90;;;;;;5059929;28;25083;-72
2023/02/07 08:03:23;;;;;;;16.98;8.25;;;-5.10;99.90;;;;;;5060137;28;25117;-73
2023/02/07 08:05:51;;;;;;;17.30;8.18;;;-5.00;99.90;;;;;;5059720;28;25132;-76
2023/02/07 08:08:19;;;;;;;16.92;7.63;;;-5.00;99.90;;;;;;5041751;28;25066;-69
2023/02/07 08:10:47;;;;;;;20.90;9.88;;;-4.90;99.90;;;;;;5041714;28;25096;-73
2023/02/07 08:13:15;;;;;;;19.45;9.05;;;-4.90;99.90;;;;;;5059330;28;25071;-72
2023/02/07 08:15:44;;;;;;;19.17;7.95;;;-4.90;99.90;;;;;;5041838;28;25136;-71
2023/02/07 08:18:12;;;;;;;16.38;8.02;;;-4.80;99.90;;;;;;5059591;28;25087;-70
2023/02/07 08:20:40;;;;;;;18.08;8.02;;;-4.80;99.90;;;;;;5041614;28;25057;-73
2023/02/07 08:23:07;;;;;;;18.65;8.30;;;-4.70;99.90;;;;;;5041538;28;25112;-72
2023/02/07 08:25:35;;;;;;;19.30;8.32;;;-4.70;99.90;;;;;;5041587;28;25079;-70
2023/02/07 08:28:02;;;;;;;17.73;8.68;;;-4.60;99.90;;;;;;5059120;28;25061;-70
2023/02/07 08:30:30;;;;;;;31.27;12.60;;;-4.60;99.90;;;;;;5047758;28;25058;-70
2023/02/07 08:32:58;;;;;;;23.15;10.55;;;-4.50;99.90;;;;;;5077800;28;25062;-70
2023/02/07 08:35:25;;;;;;;19.75;9.52;;;-4.40;99.90;;;;;;5078056;28;25120;-71
2023/02/07 08:37:54;;;;;;;21.60;9.75;;;-4.30;99.90;;;;;;5079525;28;25148;-72
2023/02/07 08:40:22;;;;;;;40.78;16.77;;;-4.30;99.90;;;;;;5078953;28;25067;-72
2023/02/07 08:42:49;;;;;;;33.33;14.45;;;-4.20;99.90;;;;;;5077742;28;25111;-71
2023/02/07 08:45:17;;;;;;;35.42;14.25;;;-4.10;99.90;;;;;;5079046;28;25076;-72
2023/02/07 08:47:45;;;;;;;28.40;12.20;;;-4.10;99.90;;;;;;5079089;28;25143;-71
2023/02/07 08:50:15;;;;;;;27.10;11.65;;;-4.00;99.90;;;;;;5077663;28;25062;-71
2023/02/07 08:52:42;;;;;;;25.67;11.25;;;-3.90;99.90;;;;;;5078668;28;25091;-72
2023/02/07 08:55:10;;;;;;;32.70;14.07;;;-3.80;99.90;;;;;;5079112;28;25108;-69
2023/02/07 08:57:38;;;;;;;31.52;12.40;;;-3.70;99.90;;;;;;5078589;28;25057;-71
2023/02/07 09:00:07;;;;;;;27.90;12.60;;;-3.70;99.90;;;;;;5078519;28;25058;-71
2023/02/07 09:02:35;;;;;;;23.83;10.50;;;-3.60;99.90;;;;;;5078286;28;25101;-71
2023/02/07 09:05:03;;;;;;;25.67;11.43;;;-3.50;99.90;;;;;;5078478;28;25080;-71
2023/02/07 09:07:30;;;;;;;22.08;10.15;;;-3.40;99.90;;;;;;5078466;28;25062;-71
2023/02/07 09:09:57;;;;;;;18.10;9.52;;;-3.30;99.90;;;;;;5078440;28;25076;-71
2023/02/07 09:12:24;;;;;;;24.40;10.98;;;-3.20;99.90;;;;;;5078754;28;25060;-71
2023/02/07 09:14:52;;;;;;;19.60;10.50;;;-3.10;99.90;;;;;;5077151;28;25124;-69
2023/02/07 09:17:19;;;;;;;24.10;10.70;;;-3.00;99.90;;;;;;5078438;28;25054;-71
2023/02/07 09:19:46;;;;;;;22.85;9.55;;;-2.90;99.90;;;;;;5078447;28;25105;-71
2023/02/07 09:22:14;;;;;;;20.10;9.75;;;-2.80;99.90;;;;;;5078190;28;25117;-73
2023/02/07 09:24:41;;;;;;;17.77;9.65;;;-2.70;99.90;;;;;;5078461;28;25131;-72
2023/02/07 09:27:08;;;;;;;21.88;11.05;;;-2.60;99.90;;;;;;5078086;28;25067;-75
2023/02/07 09:29:36;;;;;;;21.58;11.27;;;-2.60;99.90;;;;;;5076668;28;25051;-72
2023/02/07 09:32:04;;;;;;;22.15;11.52;;;-2.50;99.90;;;;;;5060009;28;25080;-72
2023/02/07 09:34:34;;;;;;;17.75;9.93;;;-2.40;99.90;;;;;;5040235;28;25071;-70
2023/02/07 09:37:02;;;;;;;21.38;10.68;;;-2.30;99.90;;;;;;5057856;28;25093;-69
2023/02/07 09:39:31;;;;;;;23.90;11.30;;;-2.30;99.90;;;;;;5058365;28;25050;-71
2023/02/07 09:42:21;;;;;;;26.27;11.13;;;-2.20;99.90;;;;;;5057650;28;25053;-69
2023/02/07 09:44:54;;;;;;;24.50;11.13;;;-2.10;99.90;;;;;;5058454;28;25147;-69
2023/02/07 09:47:23;;;;;;;24.98;9.55;;;-2.00;99.90;;;;;;5058199;28;25062;-69
2023/02/07 09:50:06;;;;;;;22.90;11.05;;;-1.90;99.90;;;;;;5058224;28;25158;-71
2023/02/07 09:52:45;;;;;;;21.25;9.57;;;-1.90;99.90;;;;;;5057752;28;25109;-71
2023/02/07 09:55:25;;;;;;;18.20;9.60;;;-1.70;99.90;;;;;;5058163;28;25055;-71
2023/02/07 09:58:12;;;;;;;21.52;10.65;;;-1.60;99.90;;;;;;5057356;28;25052;-70
2023/02/07 10:00:41;;;;;;;19.80;9.20;;;-1.60;99.90;;;;;;5057969;28;25056;-71
2023/02/07 10:03:20;;;;;;;22.15;9.82;;;-1.50;99.90;;;;;;5039823;28;25060;-71
2023/02/07 10:06:25;;;;;;;20.75;9.43;;;-1.40;99.90;;;;;;5057283;28;25103;-71
2023/02/07 10:08:59;;;;;;;20.85;10.88;;;-1.30;99.90;;;;;;5036281;28;25076;-69
2023/02/07 10:11:44;;;;;;;20.90;10.48;;;-1.30;99.90;;;;;;5056629;28;25109;-71
2023/02/07 10:14:57;;;;;;;19.40;8.95;;;-1.20;99.90;;;;;;5039651;28;25065;-72
2023/02/07 10:17:24;;;;;;;16.48;8.85;;;-1.10;99.90;;;;;;5057322;28;25144;-72
2023/02/07 10:20:18;;;;;;;17.05;8.23;;;-1.10;99.90;;;;;;5039351;28;25105;-69
2023/02/07 10:23:27;;;;;;;15.40;8.07;;;-1.10;99.90;;;;;;5057209;28;25066;-70
2023/02/07 10:26:23;;;;;;;18.30;8.93;;;-1.10;99.90;;;;;;5057072;28;25054;-70
2023/02/07 10:29:08;;;;;;;19.95;10.43;;;-0.90;99.90;;;;;;5057125;28;25118;-70
2023/02/07 10:31:42;;;;;;;22.73;10.52;;;-0.80;99.90;;;;;;5056697;28;25086;-70
2023/02/07 10:34:14;;;;;;;19.67;10.25;;;-0.80;99.90;;;;;;5057246;28;25057;-72
2023/02/07 10:36:50;;;;;;;18.55;9.27;;;-0.70;99.90;;;;;;5056704;28;25115;-70
2023/02/07 10:39:35;;;;;;;;;;;-0.70;99.90;;;;;;5057340;28;25088;-70
2023/02/07 10:42:02;;;;;;;15.57;8.93;;;-0.70;99.90;;;;;;5038919;28;25065;-70
2023/02/07 10:44:30;;;;;;;16.90;8.98;;;-0.60;99.90;;;;;;5056608;28;25110;-69
2023/02/07 10:47:08;;;;;;;19.48;9.60;;;-0.60;99.90;;;;;;5056576;28;25065;-69
2023/02/07 10:49:36;;;;;;;19.38;9.52;;;-0.60;99.90;;;;;;5056961;28;25105;-69
2023/02/07 10:52:27;;;;;;;14.90;8.43;;;-0.60;99.90;;;;;;5038741;28;25068;-69
2023/02/07 10:55:00;;;;;;;16.05;8.52;;;-0.50;99.90;;;;;;5057040;28;25067;-69
2023/02/07 10:57:29;;;;;;;14.57;8.82;;;-0.40;99.90;;;;;;5056370;28;25137;-69
2023/02/07 11:00:28;;;;;;;16.83;8.18;;;-0.40;99.90;;;;;;5057148;28;25108;-69
2023/02/07 11:03:06;;;;;;;14.93;8.13;;;-0.30;99.90;;;;;;5056346;28;25063;-69
2023/02/07 11:05:37;;;;;;;16.00;8.45;;;-0.30;99.90;;;;;;5056809;28;25073;-69
2023/02/07 11:08:36;;;;;;;19.13;8.20;;;-0.20;99.90;;;;;;5056449;28;25070;-69
2023/02/07 11:11:31;;;;;;;14.52;6.60;;;-0.20;99.90;;;;;;5056647;28;25082;-69
2023/02/07 11:14:05;;;;;;;13.73;6.63;;;-0.20;99.90;;;;;;5056485;28;25117;-71
2023/02/07 11:16:33;;;;;;;15.40;7.40;;;-0.10;99.90;;;;;;5038526;28;25075;-69
2023/02/07 11:19:02;;;;;;;12.40;6.30;;;-0.10;99.90;;;;;;5038678;28;25091;-68
2023/02/07 11:21:41;;;;;;;16.25;7.30;;;0.00;99.90;;;;;;5038716;28;25096;-68
2023/02/07 11:24:24;;;;;;;14.07;8.00;;;0.10;99.90;;;;;;5058093;28;25052;-69
2023/02/07 11:27:11;;;;;;;13.35;7.18;;;0.10;99.90;;;;;;5060801;28;25061;-68
2023/02/07 11:29:51;;;;;;;13.57;6.93;;;0.10;99.90;;;;;;5060993;28;25055;-68
2023/02/07 11:32:20;;;;;;;14.80;7.68;;;0.10;99.90;;;;;;5060061;28;25085;-70
2023/02/07 11:35:04;;;;;;;14.10;7.72;;;0.20;99.90;;;;;;5042747;28;25068;-71
2023/02/07 11:37:47;;;;;;;14.02;7.18;;;0.20;99.90;;;;;;5060636;28;25159;-71
2023/02/07 11:40:27;;;;;;;16.30;7.22;;;0.30;99.90;;;;;;5060772;28;25079;-69
2023/02/07 11:43:12;;;;;;;14.32;7.50;;;0.40;99.90;;;;;;5059836;28;25100;-70
2023/02/07 11:45:48;;;;;;;12.93;6.65;;;0.40;99.90;;;;;;5059962;28;25044;-70
2023/02/07 11:48:21;;;;;;;;;;;0.50;99.90;;;;;;5060249;28;25061;-69
2023/02/07 11:50:54;;;;;;;14.18;7.88;;;0.50;99.90;;;;;;5060215;28;24088;-69
2023/02/07 11:53:39;;;;;;;13.23;6.82;;;0.50;99.90;;;;;;5060269;28;25085;-71
2023/02/07 11:56:36;;;;;;;13.27;6.22;;;0.50;99.90;;;;;;5059648;28;25057;-70
2023/02/07 11:59:18;;;;;;;12.63;6.63;;;0.50;99.90;;;;;;5059840;28;24885;-72
2023/02/07 12:02:07;;;;;;;10.80;6.20;;;0.50;99.90;;;;;;5041964;28;25057;-70
2023/02/07 12:04:37;;;;;;;11.80;5.80;;;0.50;99.90;;;;;;5042015;28;25068;-73
2023/02/07 12:07:13;;;;;;;15.13;7.65;;;0.50;99.90;;;;;;5060039;28;25080;-69
2023/02/07 12:10:00;;;;;;;12.23;6.47;;;0.50;99.90;;;;;;5060079;28;25059;-69
2023/02/07 12:12:56;;;;;;;12.00;6.40;;;0.60;99.90;;;;;;5041590;28;25094;-70
2023/02/07 12:15:53;;;;;;;13.85;7.13;;;0.60;99.90;;;;;;5023917;28;25112;-70
2023/02/07 12:18:53;;;;;;;10.87;6.07;;;0.70;99.90;;;;;;5059984;28;25107;-69
2023/02/07 12:21:34;;;;;;;11.90;5.93;;;0.80;99.90;;;;;;5059263;28;25144;-69
2023/02/07 12:24:16;;;;;;;11.00;5.60;;;0.80;99.90;;;;;;5041628;28;25061;-70
2023/02/07 12:26:58;;;;;;;10.05;4.82;;;0.90;99.90;;;;;;5059645;28;25116;-69
2023/02/07 12:29:35;;;;;;;8.68;4.25;;;0.90;99.90;;;;;;5059183;28;25122;-70
2023/02/07 12:32:15;;;;;;;8.75;4.82;;;1.00;99.90;;;;;;5058963;28;25066;-68
2023/02/07 12:35:12;;;;;;;11.60;5.18;;;1.00;99.90;;;;;;5041040;28;25100;-69
2023/02/07 12:38:05;;;;;;;13.20;6.35;;;1.00;99.90;;;;;;5059303;28;25139;-69
2023/02/07 12:40:40;;;;;;;12.30;6.43;;;1.10;99.90;;;;;;5051614;28;25065;-69
2023/02/07 12:43:27;;;;;;;8.90;5.00;;;1.20;99.90;;;;;;5059641;28;25079;-69
2023/02/07 12:46:17;;;;;;;10.00;5.28;;;1.20;99.90;;;;;;5059118;28;25055;-69
2023/02/07 12:49:04;;;;;;;23.70;10.57;;;1.20;99.90;;;;;;5058798;28;25067;-71
2023/02/07 12:52:09;;;;;;;10.38;5.78;;;1.20;99.90;;;;;;5058664;28;25126;-71
2023/02/07 12:54:50;;;;;;;9.32;4.55;;;1.30;99.90;;;;;;5041130;28;25040;-72
2023/02/07 12:57:49;;;;;;;11.38;4.97;;;1.30;99.90;;;;;;5040829;28;25063;-70
2023/02/07 13:00:32;;;;;;;8.32;4.88;;;1.40;99.90;;;;;;5058895;28;25093;-70
2023/02/07 13:03:09;;;;;;;10.20;5.07;;;1.50;99.90;;;;;;5058580;28;25072;-70
2023/02/07 13:06:02;;;;;;;8.05;4.63;;;1.60;99.90;;;;;;5059009;28;25064;-72
2023/02/07 13:08:48;;;;;;;9.95;4.47;;;1.70;99.90;;;;;;5040694;28;25134;-72
2023/02/07 13:11:39;;;;;;;9.98;5.30;;;1.90;99.90;;;;;;5058739;28;25075;-71